createdAt,value
2022-11-05T00:00:07.449Z,9.14
2022-11-05T00:05:30.729Z,9.20
2022-11-05T00:10:36.639Z,9.22
2022-11-05T00:15:57.707Z,9.22
2022-11-05T00:20:59.433Z,9.20
2022-11-05T00:26:03.471Z,9.31
2022-11-05T00:31:09.797Z,9.21
2022-11-05T00:36:11.805Z,9.22
2022-11-05T00:41:13.470Z,9.20
2022-11-05T00:46:15.210Z,9.23
2022-11-05T00:51:17.060Z,9.33
2022-11-05T00:56:18.743Z,9.25
2022-11-05T01:01:20.498Z,9.29
2022-11-05T01:06:22.238Z,9.19
2022-11-05T01:11:37.281Z,9.24
2022-11-05T01:16:40.592Z,9.24
2022-11-05T01:21:42.251Z,9.27
2022-11-05T01:26:43.897Z,9.22
2022-11-05T01:31:45.580Z,9.27
2022-11-05T01:36:47.261Z,9.31
2022-11-05T01:41:48.918Z,9.28
2022-11-05T01:46:50.939Z,9.43
2022-11-05T01:51:52.873Z,9.32
2022-11-05T01:57:04.041Z,9.21
2022-11-05T02:02:07.922Z,9.19
2022-11-05T02:07:11.035Z,9.19
2022-11-05T02:12:14.451Z,9.19
2022-11-05T02:17:48.121Z,9.09
2022-11-05T02:23:14.803Z,9.12
2022-11-05T02:28:30.034Z,9.14
2022-11-05T02:33:58.317Z,9.23
2022-11-05T02:39:13.397Z,9.20
2022-11-05T02:44:27.362Z,9.24
2022-11-05T02:49:48.182Z,9.26
2022-11-05T02:55:08.973Z,9.20
2022-11-05T03:00:35.368Z,9.12
2022-11-05T03:05:47.084Z,9.16
2022-11-05T03:11:17.727Z,9.16
2022-11-05T03:16:28.514Z,9.16
2022-11-05T03:21:36.269Z,9.26
2022-11-05T03:26:56.835Z,9.15
2022-11-05T03:32:02.430Z,9.27
2022-11-05T03:37:06.415Z,9.22
2022-11-05T03:42:13.273Z,9.24
2022-11-05T03:47:22.323Z,9.24
2022-11-05T03:52:28.260Z,9.21
2022-11-05T03:57:34.708Z,9.27
2022-11-05T04:02:38.516Z,9.24
2022-11-05T04:07:58.912Z,9.20
2022-11-05T04:13:19.254Z,9.30
2022-11-05T04:18:21.165Z,9.49
2022-11-05T04:23:41.246Z,9.25
2022-11-05T04:29:05.230Z,9.42
2022-11-05T04:34:09.529Z,9.25
2022-11-05T04:39:11.298Z,9.45
2022-11-05T04:44:12.971Z,9.29
2022-11-05T04:49:14.630Z,9.31
2022-11-05T04:54:16.287Z,9.41
2022-11-05T04:59:17.944Z,9.30
2022-11-05T05:04:20.704Z,9.23
2022-11-05T05:09:22.406Z,9.20
2022-11-05T05:14:24.071Z,9.29
2022-11-05T05:19:26.290Z,9.25
2022-11-05T05:24:27.939Z,9.22
2022-11-05T05:29:29.585Z,9.01
2022-11-05T05:34:31.256Z,8.92
2022-11-05T05:39:32.919Z,9.10
2022-11-05T05:44:34.559Z,9.17
2022-11-05T05:49:36.244Z,9.21
2022-11-05T05:54:42.493Z,9.09
2022-11-05T05:59:44.683Z,8.95
2022-11-05T06:04:46.345Z,9.00
2022-11-05T06:09:48.020Z,9.14
2022-11-05T06:14:49.674Z,9.14
2022-11-05T06:19:51.519Z,9.27
2022-11-05T06:24:53.175Z,9.13
2022-11-05T06:29:54.951Z,9.01
2022-11-05T06:34:56.888Z,8.98
2022-11-05T06:39:58.751Z,9.05
2022-11-05T06:45:00.453Z,9.13
2022-11-05T06:50:02.110Z,9.38
2022-11-05T06:55:04.394Z,9.46
2022-11-05T07:00:08.140Z,9.33
2022-11-05T07:05:13.373Z,9.47
2022-11-05T07:10:17.806Z,9.55
2022-11-05T07:15:19.463Z,9.51
2022-11-05T07:20:21.200Z,9.46
2022-11-05T07:25:22.875Z,9.89
2022-11-05T07:30:24.718Z,9.71
2022-11-05T07:35:27.855Z,9.85
2022-11-05T07:40:31.001Z,9.96
2022-11-05T07:45:32.889Z,10.12
2022-11-05T07:50:37.065Z,10.12
2022-11-05T07:55:40.899Z,10.12
2022-11-05T08:00:42.791Z,9.97
2022-11-05T08:05:46.725Z,10.39
2022-11-05T08:10:48.518Z,10.57
2022-11-05T08:15:51.378Z,10.29
2022-11-05T08:20:53.033Z,10.31
2022-11-05T08:25:55.743Z,10.55
2022-11-05T08:30:57.858Z,10.88
2022-11-05T08:36:03.134Z,10.90
2022-11-05T08:41:05.014Z,10.84
2022-11-05T08:46:06.678Z,10.91
2022-11-05T08:51:08.415Z,11.21
2022-11-05T08:56:10.118Z,10.96
2022-11-05T09:01:11.901Z,11.02
2022-11-05T09:06:14.578Z,11.23
2022-11-05T09:11:16.623Z,11.39
2022-11-05T09:16:21.556Z,11.29
2022-11-05T09:21:23.205Z,11.48
2022-11-05T09:26:24.907Z,11.33
2022-11-05T09:31:26.632Z,11.05
2022-11-05T09:36:28.319Z,12.24
2022-11-05T09:41:35.881Z,11.72
2022-11-05T09:46:45.808Z,10.90
2022-11-05T09:51:47.730Z,12.16
2022-11-05T09:56:49.593Z,12.10
2022-11-05T10:01:59.391Z,11.70
2022-11-05T10:07:06.170Z,13.60
2022-11-05T10:12:17.096Z,13.61
2022-11-05T10:17:27.909Z,12.85
2022-11-05T10:22:29.587Z,12.94
2022-11-05T10:27:36.484Z,12.92
2022-11-05T10:32:42.820Z,13.48
2022-11-05T10:37:46.774Z,12.86
2022-11-05T10:43:03.269Z,15.47
2022-11-05T10:48:13.812Z,15.08
2022-11-05T10:53:20.811Z,12.61
2022-11-05T10:58:29.015Z,16.96
2022-11-05T11:03:41.837Z,18.25
2022-11-05T11:08:46.319Z,16.11
2022-11-05T11:14:09.683Z,16.64
2022-11-05T11:19:34.164Z,19.54
2022-11-05T11:24:42.823Z,21.47
2022-11-05T11:29:50.064Z,20.84
2022-11-05T11:34:54.381Z,21.93
2022-11-05T11:40:02.155Z,18.40
2022-11-05T11:45:35.371Z,15.87
2022-11-05T11:50:43.143Z,13.16
2022-11-05T11:56:05.221Z,12.83
2022-11-05T12:01:09.569Z,12.46
2022-11-05T12:06:39.995Z,12.20
2022-11-05T12:11:54.881Z,11.85
2022-11-05T12:17:02.677Z,12.02
2022-11-05T12:22:22.446Z,16.44
2022-11-05T12:27:38.656Z,18.06
2022-11-05T12:33:09.660Z,17.75
2022-11-05T12:38:11.497Z,18.58
2022-11-05T12:43:32.112Z,15.51
2022-11-05T12:49:04.694Z,14.50
2022-11-05T12:54:23.511Z,16.03
2022-11-05T12:59:36.756Z,16.58
2022-11-05T13:05:01.486Z,16.51
2022-11-05T13:10:20.562Z,17.61
2022-11-05T13:15:29.585Z,17.52
2022-11-05T13:20:39.896Z,17.45
2022-11-05T13:25:51.697Z,17.18
2022-11-05T13:30:57.914Z,18.41
2022-11-05T13:36:22.727Z,19.09
2022-11-05T13:41:34.327Z,18.10
2022-11-05T13:47:03.029Z,16.66
2022-11-05T13:52:38.457Z,14.12
2022-11-05T13:58:36.813Z,13.35
2022-11-05T14:03:45.688Z,12.47
2022-11-05T14:08:47.935Z,12.08
2022-11-05T14:13:55.110Z,12.18
2022-11-05T14:19:18.354Z,10.73
2022-11-05T14:24:22.831Z,11.25
2022-11-05T14:29:24.925Z,12.44
2022-11-05T14:34:45.750Z,12.18
2022-11-05T14:39:47.959Z,11.95
2022-11-05T14:45:34.218Z,11.26
2022-11-05T14:50:39.945Z,10.77
2022-11-05T14:55:43.502Z,10.17
2022-11-05T15:00:47.538Z,9.93
2022-11-05T15:05:51.855Z,9.72
2022-11-05T15:10:56.824Z,9.31
2022-11-05T15:15:59.542Z,9.21
2022-11-05T15:21:03.418Z,8.90
2022-11-05T15:26:22.200Z,8.84
2022-11-05T15:31:26.930Z,8.82
2022-11-05T15:36:31.929Z,8.63
2022-11-05T15:41:34.645Z,8.53
2022-11-05T15:46:36.489Z,8.43
2022-11-05T15:51:38.200Z,8.28
2022-11-05T15:56:52.891Z,8.33
2022-11-05T16:02:21.071Z,7.96
2022-11-05T16:07:23.562Z,7.79
2022-11-05T16:12:32.449Z,7.73
2022-11-05T16:17:39.949Z,7.84
2022-11-05T16:22:46.808Z,7.83
2022-11-05T16:27:48.590Z,7.70
2022-11-05T16:32:50.637Z,7.58
2022-11-05T16:37:52.813Z,7.46
2022-11-05T16:42:55.217Z,7.36
2022-11-05T16:47:58.099Z,7.25
2022-11-05T16:52:59.786Z,7.26
2022-11-05T16:58:01.845Z,6.78
2022-11-05T17:03:04.226Z,6.75
2022-11-05T17:08:05.975Z,6.55
2022-11-05T17:13:19.646Z,6.42
2022-11-05T17:18:21.801Z,6.46
2022-11-05T17:23:26.802Z,6.15
2022-11-05T17:28:29.175Z,6.26
2022-11-05T17:33:31.333Z,6.21
2022-11-05T17:38:33.007Z,6.03
2022-11-05T17:43:34.671Z,6.15
2022-11-05T17:48:38.214Z,6.01
2022-11-05T17:53:39.867Z,5.77
2022-11-05T17:58:41.576Z,5.98
2022-11-05T18:03:43.227Z,6.02
2022-11-05T18:08:44.930Z,5.79
2022-11-05T18:13:46.870Z,5.77
2022-11-05T18:18:49.376Z,5.59
2022-11-05T18:23:51.070Z,5.75
2022-11-05T18:28:52.730Z,5.46
2022-11-05T18:33:59.416Z,5.42
2022-11-05T18:39:03.594Z,5.44
2022-11-05T18:44:05.577Z,5.57
2022-11-05T18:49:07.355Z,5.59
2022-11-05T18:54:09.095Z,5.33
2022-11-05T19:04:46.781Z,5.24
2022-11-05T19:09:56.914Z,5.18
2022-11-05T19:15:02.375Z,5.26
2022-11-05T19:20:05.507Z,5.07
2022-11-05T19:25:07.830Z,5.03
2022-11-05T19:30:10.142Z,4.84
2022-11-05T19:35:11.881Z,4.94
2022-11-05T19:40:13.663Z,4.96
2022-11-05T19:45:44.091Z,4.91
2022-11-05T19:50:42.878Z,4.71
2022-11-05T19:55:45.099Z,4.57
2022-11-05T20:00:46.852Z,4.41
2022-11-05T20:05:48.574Z,4.53
2022-11-05T20:10:54.633Z,4.24
2022-11-05T20:15:56.703Z,4.25
2022-11-05T20:21:04.031Z,4.36
2022-11-05T20:26:06.984Z,4.47
2022-11-05T20:31:11.226Z,4.13
2022-11-05T20:36:19.815Z,4.13
2022-11-05T20:41:21.981Z,4.28
2022-11-05T20:46:24.018Z,4.25
2022-11-05T20:51:25.678Z,4.08
2022-11-05T20:56:30.363Z,4.05
2022-11-05T21:01:33.721Z,4.17
2022-11-05T21:06:35.934Z,3.95
2022-11-05T21:11:56.142Z,3.93
2022-11-05T21:16:57.854Z,4.05
2022-11-05T21:21:59.810Z,3.99
2022-11-05T21:27:01.827Z,3.81
2022-11-05T21:32:03.910Z,3.99
2022-11-05T21:37:05.924Z,3.79
2022-11-05T21:42:07.666Z,3.75
2022-11-05T21:47:09.658Z,3.55
2022-11-05T21:52:30.665Z,3.50
2022-11-05T21:57:52.429Z,3.62
2022-11-05T22:02:54.289Z,3.71
2022-11-05T22:07:56.057Z,4.04
2022-11-05T22:12:57.882Z,3.87
2022-11-05T22:17:59.636Z,3.72
2022-11-05T22:23:01.303Z,3.63
2022-11-05T22:28:03.011Z,3.57
2022-11-05T22:33:04.712Z,3.53
2022-11-05T22:38:06.376Z,3.34
2022-11-05T22:43:08.041Z,3.38
2022-11-05T22:48:09.868Z,3.61
2022-11-05T22:53:11.821Z,3.32
2022-11-05T22:58:13.883Z,3.37
2022-11-05T23:03:15.856Z,3.45
2022-11-05T23:08:35.994Z,3.32
2022-11-05T23:13:37.662Z,3.16
2022-11-05T23:18:58.055Z,3.35
2022-11-05T23:24:05.585Z,3.30
2022-11-05T23:29:07.247Z,3.27
2022-11-05T23:34:08.898Z,3.35
2022-11-05T23:39:10.541Z,3.31
2022-11-05T23:44:30.648Z,3.32
2022-11-05T23:49:32.412Z,3.39
2022-11-05T23:54:34.134Z,3.37
2022-11-05T23:59:35.782Z,3.29
